Time;durP1;ratioP1;P1;durP2;ratioP2;P2;SDS_P1;SDS_P2;PMS_P1;PMS_P2;Temp;Humidity;BMP_temperature;BMP_pressure;BME280_temperature;BME280_humidity;BME280_pressure;Samples;Min_cycle;Max_cycle;Signal;HPM_P1;HPM_P2
2022/05/05 00:00:08;;;;;;;3.92;3.60;;;;;;;;;;5073940;28;20267;-80
2022/05/05 00:02:37;;;;;;;4.28;3.88;;;;;;;;;;5084938;28;20254;-80
2022/05/05 00:05:05;;;;;;;3.60;3.30;;;;;;;;;;5084970;28;20197;-80
2022/05/05 00:07:33;;;;;;;4.93;4.03;;;;;;;;;;5086108;28;20200;-80
2022/05/05 00:14:23;;;;;;;5.72;4.38;;;;;;;;;;5086313;28;20209;-80
2022/05/05 00:15:41;;;;;;;6.13;3.70;;;;;;;;;;5049123;28;20673;-80
2022/05/05 00:18:11;;;;;;;5.68;3.58;;;;;;;;;;5085566;28;20220;-79
2022/05/05 00:20:38;;;;;;;4.40;4.00;;;;;;;;;;5087121;28;20246;-79
2022/05/05 00:23:06;;;;;;;6.38;4.30;;;;;;;;;;5085689;28;20205;-79
2022/05/05 00:25:33;;;;;;;5.32;4.82;;;;;;;;;;5086026;28;20205;-79
2022/05/05 00:28:01;;;;;;;6.97;4.88;;;;;;;;;;5085485;28;20193;-80
2022/05/05 00:30:29;;;;;;;5.18;4.68;;;;;;;;;;5085991;28;20231;-80
2022/05/05 00:32:56;;;;;;;6.05;4.85;;;;;;;;;;5085289;28;20205;-80
2022/05/05 00:35:25;;;;;;;9.43;6.00;;;;;;;;;;5085084;28;20227;-80
2022/05/05 00:37:52;;;;;;;7.22;4.78;;;;;;;;;;5085742;28;20221;-80
2022/05/05 00:40:19;;;;;;;5.45;4.95;;;;;;;;;;5086306;28;20225;-81
2022/05/05 00:42:46;;;;;;;6.30;5.45;;;;;;;;;;5085444;28;20213;-80
2022/05/05 00:45:14;;;;;;;10.68;4.95;;;;;;;;;;5085957;28;20207;-80
2022/05/05 00:47:41;;;;;;;7.55;5.38;;;;;;;;;;5085447;28;20204;-80
2022/05/05 00:50:10;;;;;;;6.32;4.68;;;;;;;;;;5086407;28;20685;-80
2022/05/05 00:52:38;;;;;;;5.10;4.50;;;;;;;;;;5086085;28;20226;-80
2022/05/05 00:55:07;;;;;;;5.45;4.18;;;;;;;;;;5085303;28;20599;-80
2022/05/05 00:57:35;;;;;;;5.47;4.20;;;;;;;;;;5083933;28;20605;-79
2022/05/05 01:00:03;;;;;;;7.05;3.75;;;;;;;;;;5085633;28;20231;-79
2022/05/05 01:02:30;;;;;;;4.88;4.43;;;;;;;;;;5084860;28;20201;-81
2022/05/05 01:04:58;;;;;;;7.38;5.70;;;;;;;;;;5085637;28;20231;-80
2022/05/05 01:07:25;;;;;;;5.40;3.70;;;;;;;;;;5085224;28;20227;-80
2022/05/05 01:09:54;;;;;;;5.18;4.68;;;;;;;;;;5084711;28;20693;-79
2022/05/05 01:12:23;;;;;;;6.65;4.38;;;;;;;;;;5084731;28;20684;-80
2022/05/05 01:14:50;;;;;;;5.75;4.85;;;;;;;;;;5085815;28;20208;-80
2022/05/05 01:17:17;;;;;;;7.82;5.80;;;;;;;;;;5085483;28;20220;-80
2022/05/05 01:19:44;;;;;;;5.63;5.13;;;;;;;;;;5085487;28;20201;-81
2022/05/05 01:22:15;;;;;;;6.38;5.38;;;;;;;;;;5085207;28;20692;-79
2022/05/05 01:30:13;;;;;;;7.53;6.35;;;;;;;;;;5089961;28;20227;-80
2022/05/05 01:32:40;;;;;;;7.60;5.53;;;;;;;;;;5088782;28;20665;-81
2022/05/05 01:35:08;;;;;;;5.80;4.68;;;;;;;;;;5088430;28;20205;-80
2022/05/05 01:37:37;;;;;;;6.55;5.85;;;;;;;;;;5088284;28;20220;-80
2022/05/05 01:40:05;;;;;;;5.72;5.13;;;;;;;;;;5088965;28;20206;-81
2022/05/05 01:42:33;;;;;;;6.15;5.00;;;;;;;;;;5088241;28;20216;-80
2022/05/05 01:45:00;;;;;;;7.38;5.00;;;;;;;;;;5089789;28;20211;-81
2022/05/05 01:47:27;;;;;;;8.35;5.40;;;;;;;;;;5087536;28;20242;-80
2022/05/05 01:49:59;;;;;;;5.03;4.63;;;;;;;;;;5089796;28;20209;-80
2022/05/05 01:52:26;;;;;;;8.38;5.78;;;;;;;;;;5087788;28;20205;-81
2022/05/05 01:54:55;;;;;;;8.85;5.75;;;;;;;;;;5090115;28;20209;-81
2022/05/05 01:57:22;;;;;;;9.95;6.50;;;;;;;;;;5089194;28;20243;-80
2022/05/05 01:59:49;;;;;;;6.15;5.00;;;;;;;;;;5088877;28;20584;-81
2022/05/05 02:02:17;;;;;;;7.35;5.85;;;;;;;;;;5088802;28;20673;-80
2022/05/05 02:04:44;;;;;;;5.80;5.20;;;;;;;;;;5088573;28;20205;-80
2022/05/05 02:07:11;;;;;;;7.10;4.82;;;;;;;;;;5089375;28;20211;-81
2022/05/05 02:09:38;;;;;;;5.75;4.53;;;;;;;;;;5088488;28;20224;-80
2022/05/05 02:12:09;;;;;;;6.47;5.03;;;;;;;;;;5087746;28;20282;-81
2022/05/05 02:14:37;;;;;;;5.95;4.72;;;;;;;;;;5089138;28;20284;-81
2022/05/05 02:17:05;;;;;;;5.28;4.78;;;;;;;;;;5087928;28;20223;-80
2022/05/05 02:19:32;;;;;;;4.95;4.40;;;;;;;;;;5087906;28;20207;-80
2022/05/05 02:22:00;;;;;;;6.53;4.07;;;;;;;;;;5087666;28;20783;-80
2022/05/05 02:24:27;;;;;;;5.68;4.55;;;;;;;;;;5088448;28;20205;-80
2022/05/05 02:26:54;;;;;;;5.43;4.93;;;;;;;;;;5087740;28;20231;-80
2022/05/05 02:29:23;;;;;;;6.45;5.03;;;;;;;;;;5087251;28;20204;-80
2022/05/05 02:31:50;;;;;;;5.32;4.88;;;;;;;;;;5086732;28;20232;-80
2022/05/05 02:34:17;;;;;;;5.32;4.45;;;;;;;;;;5088443;28;20208;-81
2022/05/05 02:39:29;;;;;;;6.95;6.25;;;;;;;;;;5089027;28;20250;-81
2022/05/05 02:41:57;;;;;;;5.72;4.97;;;;;;;;;;5087666;28;20663;-80
2022/05/05 02:44:26;;;;;;;6.25;4.90;;;;;;;;;;5088549;28;20695;-81
2022/05/05 02:46:53;;;;;;;6.55;5.72;;;;;;;;;;5088159;28;20197;-80
2022/05/05 02:49:20;;;;;;;5.90;5.40;;;;;;;;;;5087974;28;20312;-81
2022/05/05 02:51:48;;;;;;;8.30;5.03;;;;;;;;;;5085837;28;20221;-80
2022/05/05 02:57:00;;;;;;;7.20;6.28;;;;;;;;;;5088666;28;20332;-80
2022/05/05 02:59:28;;;;;;;6.82;5.40;;;;;;;;;;5087510;28;20220;-79
2022/05/05 03:01:56;;;;;;;6.95;6.30;;;;;;;;;;5087766;28;20227;-80
2022/05/05 03:04:23;;;;;;;7.38;6.60;;;;;;;;;;5087674;28;20807;-80
2022/05/05 03:06:50;;;;;;;8.18;6.53;;;;;;;;;;5087395;28;20225;-80
2022/05/05 03:09:18;;;;;;;6.65;5.68;;;;;;;;;;5088143;28;20251;-80
2022/05/05 03:11:45;;;;;;;8.63;5.30;;;;;;;;;;5087386;28;20251;-80
2022/05/05 03:14:13;;;;;;;8.57;6.10;;;;;;;;;;5088128;28;20212;-80
2022/05/05 03:16:42;;;;;;;7.50;6.60;;;;;;;;;;5086657;28;20201;-80
2022/05/05 03:19:09;;;;;;;7.20;6.50;;;;;;;;;;5088086;28;20220;-80
2022/05/05 03:21:37;;;;;;;7.20;5.80;;;;;;;;;;5086808;28;20255;-80
2022/05/05 03:24:06;;;;;;;6.93;5.50;;;;;;;;;;5087589;28;20231;-80
2022/05/05 03:26:33;;;;;;;7.38;5.70;;;;;;;;;;5088113;28;20201;-79
2022/05/05 03:29:01;;;;;;;7.53;5.93;;;;;;;;;;5088193;28;20208;-80
2022/05/05 03:31:28;;;;;;;7.05;5.70;;;;;;;;;;5088187;28;20221;-80
2022/05/05 03:33:57;;;;;;;7.70;5.88;;;;;;;;;;5088638;28;20274;-80
2022/05/05 03:36:24;;;;;;;6.32;5.72;;;;;;;;;;5090311;28;20200;-79
2022/05/05 03:38:52;;;;;;;7.60;5.90;;;;;;;;;;5088882;28;20221;-81
2022/05/05 03:41:20;;;;;;;6.68;5.72;;;;;;;;;;5089604;28;20224;-81
2022/05/05 03:43:47;;;;;;;7.53;5.60;;;;;;;;;;5089588;28;20201;-80
2022/05/05 03:46:15;;;;;;;7.75;7.00;;;;;;;;;;5089979;28;20732;-80
2022/05/05 03:48:42;;;;;;;7.10;6.40;;;;;;;;;;5089479;28;20196;-81
2022/05/05 03:51:11;;;;;;;7.70;6.10;;;;;;;;;;5088766;28;20221;-80
2022/05/05 03:53:38;;;;;;;6.63;6.10;;;;;;;;;;5088520;28;20727;-79
2022/05/05 03:56:05;;;;;;;8.02;6.90;;;;;;;;;;5088928;28;20201;-79
2022/05/05 03:58:33;;;;;;;7.35;6.72;;;;;;;;;;5088661;28;20322;-80
2022/05/05 04:01:00;;;;;;;7.55;6.80;;;;;;;;;;5088983;28;20638;-80
2022/05/05 04:03:34;;;;;;;7.65;5.95;;;;;;;;;;5088297;28;20235;-80
2022/05/05 04:06:04;;;;;;;8.93;6.93;;;;;;;;;;5088909;28;20239;-81
2022/05/05 04:08:33;;;;;;;8.68;5.97;;;;;;;;;;5087894;28;20228;-80
2022/05/05 04:11:01;;;;;;;7.38;6.65;;;;;;;;;;5088615;28;20221;-80
2022/05/05 04:13:29;;;;;;;7.13;6.43;;;;;;;;;;5088194;28;20201;-81
2022/05/05 04:15:56;;;;;;;8.75;7.05;;;;;;;;;;5088881;28;20212;-82
2022/05/05 04:18:23;;;;;;;7.18;6.30;;;;;;;;;;5087983;28;20538;-80
2022/05/05 04:20:50;;;;;;;9.25;7.00;;;;;;;;;;5088357;28;20293;-80
2022/05/05 04:23:18;;;;;;;6.13;5.63;;;;;;;;;;5087238;28;20220;-80
2022/05/05 04:25:46;;;;;;;7.05;6.35;;;;;;;;;;5087661;28;20197;-80
2022/05/05 04:28:14;;;;;;;8.38;7.28;;;;;;;;;;5087124;28;20201;-81
2022/05/05 04:30:42;;;;;;;8.65;7.20;;;;;;;;;;5087684;28;20243;-80
2022/05/05 04:33:10;;;;;;;9.60;6.75;;;;;;;;;;5087368;28;20197;-81
2022/05/05 04:35:38;;;;;;;11.32;7.13;;;;;;;;;;5088690;28;20208;-81
2022/05/05 04:38:05;;;;;;;8.95;6.95;;;;;;;;;;5087137;28;20197;-80
2022/05/05 04:40:33;;;;;;;7.60;6.88;;;;;;;;;;5088675;28;20221;-79
2022/05/05 04:43:02;;;;;;;7.72;6.93;;;;;;;;;;5087248;28;20212;-80
2022/05/05 04:45:29;;;;;;;7.55;6.82;;;;;;;;;;5086987;28;20227;-81
2022/05/05 04:47:56;;;;;;;7.45;6.65;;;;;;;;;;5086928;28;20201;-80
2022/05/05 04:50:24;;;;;;;7.70;6.72;;;;;;;;;;5087603;28;20221;-80
2022/05/05 04:52:51;;;;;;;8.70;7.75;;;;;;;;;;5086653;28;20197;-81
2022/05/05 04:55:19;;;;;;;7.80;7.00;;;;;;;;;;5087233;28;20697;-81
2022/05/05 04:57:46;;;;;;;9.00;7.82;;;;;;;;;;5088096;28;20208;-80
2022/05/05 05:00:16;;;;;;;8.02;7.22;;;;;;;;;;5087201;28;20235;-80
2022/05/05 05:02:44;;;;;;;12.85;7.50;;;;;;;;;;5084574;28;20311;-80
2022/05/05 05:05:11;;;;;;;8.63;6.70;;;;;;;;;;5083539;28;20211;-80
2022/05/05 05:07:38;;;;;;;9.20;6.57;;;;;;;;;;5083141;28;20627;-79
2022/05/05 05:10:07;;;;;;;8.23;7.40;;;;;;;;;;5084843;28;20585;-80
2022/05/05 05:12:34;;;;;;;11.00;8.40;;;;;;;;;;5083548;28;20209;-80
2022/05/05 05:15:02;;;;;;;9.13;7.45;;;;;;;;;;5084523;28;20213;-80
2022/05/05 05:17:30;;;;;;;7.78;7.03;;;;;;;;;;5083556;28;20204;-80
2022/05/05 05:19:58;;;;;;;9.30;7.25;;;;;;;;;;5083628;28;20224;-80
2022/05/05 05:22:25;;;;;;;7.40;6.70;;;;;;;;;;5084395;28;20728;-78
2022/05/05 05:24:52;;;;;;;8.45;6.82;;;;;;;;;;5084048;28;20201;-80
2022/05/05 05:27:19;;;;;;;10.45;7.38;;;;;;;;;;5084300;28;20226;-79
2022/05/05 05:29:47;;;;;;;7.63;6.22;;;;;;;;;;5080367;28;20565;-80
2022/05/05 05:32:14;;;;;;;8.73;6.57;;;;;;;;;;5079080;28;20632;-80
2022/05/05 05:34:42;;;;;;;8.27;7.43;;;;;;;;;;5079918;28;20197;-80
2022/05/05 05:37:10;;;;;;;7.32;6.47;;;;;;;;;;5079558;28;20223;-81
2022/05/05 05:39:37;;;;;;;8.55;7.00;;;;;;;;;;5080190;28;20228;-80
2022/05/05 05:42:06;;;;;;;9.23;8.32;;;;;;;;;;5077979;28;20292;-82
2022/05/05 05:44:33;;;;;;;6.85;6.18;;;;;;;;;;5080353;28;20233;-80
2022/05/05 05:47:00;;;;;;;7.75;6.90;;;;;;;;;;5082581;28;20200;-79
2022/05/05 05:49:28;;;;;;;7.38;6.70;;;;;;;;;;5083035;28;20201;-79
2022/05/05 05:51:56;;;;;;;7.57;6.88;;;;;;;;;;5081698;28;20274;-80
2022/05/05 05:54:24;;;;;;;7.45;6.60;;;;;;;;;;5079240;28;20254;-80
2022/05/05 05:56:51;;;;;;;7.15;6.45;;;;;;;;;;5078920;28;20224;-79
2022/05/05 05:59:18;;;;;;;6.82;6.13;;;;;;;;;;5079765;28;20258;-81
2022/05/05 06:04:30;;;;;;;8.23;7.07;;;;;;;;;;5074699;28;20215;-81
2022/05/05 06:06:59;;;;;;;6.80;6.15;;;;;;;;;;5074005;28;20216;-82
2022/05/05 06:09:26;;;;;;;7.97;6.50;;;;;;;;;;5074065;28;20301;-81
2022/05/05 06:11:54;;;;;;;7.43;6.68;;;;;;;;;;5072974;28;20225;-82
2022/05/05 06:14:21;;;;;;;8.10;6.90;;;;;;;;;;5077375;28;20209;-81
2022/05/05 06:16:48;;;;;;;10.32;7.43;;;;;;;;;;5077451;28;20234;-81
2022/05/05 06:19:15;;;;;;;8.32;6.30;;;;;;;;;;5078080;28;20328;-81
2022/05/05 06:21:43;;;;;;;6.80;6.10;;;;;;;;;;5077264;28;20298;-81
2022/05/05 06:24:11;;;;;;;8.73;6.68;;;;;;;;;;5077416;28;20193;-81
2022/05/05 06:26:39;;;;;;;9.68;6.75;;;;;;;;;;5077179;28;20300;-81
2022/05/05 06:29:06;;;;;;;8.00;5.07;;;;;;;;;;5076816;28;20220;-80
2022/05/05 06:31:33;;;;;;;6.63;5.90;;;;;;;;;;5075941;28;20294;-81
2022/05/05 06:34:00;;;;;;;4.15;3.75;;;;;;;;;;5076723;28;20208;-81
2022/05/05 06:36:28;;;;;;;5.18;4.63;;;;;;;;;;5076345;28;20254;-80
2022/05/05 06:38:55;;;;;;;5.20;4.70;;;;;;;;;;5076128;28;20213;-80
2022/05/05 06:41:24;;;;;;;5.40;4.95;;;;;;;;;;5074712;28;20278;-79
2022/05/05 06:43:52;;;;;;;5.90;5.40;;;;;;;;;;5074418;28;20666;-80
2022/05/05 06:46:19;;;;;;;5.65;5.25;;;;;;;;;;5075305;28;20205;-79
2022/05/05 06:48:46;;;;;;;4.88;4.25;;;;;;;;;;5075461;28;20204;-80
2022/05/05 06:51:13;;;;;;;4.75;3.80;;;;;;;;;;5075069;28;20221;-80
2022/05/05 06:53:41;;;;;;;4.63;4.22;;;;;;;;;;5074202;28;20213;-79
2022/05/05 06:56:08;;;;;;;5.45;4.55;;;;;;;;;;5074723;28;20213;-80
2022/05/05 06:58:37;;;;;;;7.50;6.32;;;;;;;;;;5074407;28;20213;-79
2022/05/05 07:05:22;;;;;;;5.75;5.25;;;;;;;;;;5073616;28;20258;-79
2022/05/05 07:06:35;;;;;;;5.03;4.10;;;;;;;;;;5073829;28;20209;-79
2022/05/05 07:11:47;;;;;;;5.25;4.45;;;;;;;;;;5073094;28;20232;-79
2022/05/05 07:14:16;;;;;;;5.28;4.78;;;;;;;;;;5073903;28;20205;-80
2022/05/05 07:16:43;;;;;;;6.97;4.47;;;;;;;;;;5073731;28;20292;-79
2022/05/05 07:19:10;;;;;;;4.35;3.95;;;;;;;;;;5074090;28;20212;-79
2022/05/05 07:21:38;;;;;;;4.53;4.13;;;;;;;;;;5073337;28;20229;-79
2022/05/05 07:24:06;;;;;;;4.63;4.20;;;;;;;;;;5073392;28;20247;-79
2022/05/05 07:26:34;;;;;;;4.43;3.78;;;;;;;;;;5073822;28;20577;-79
2022/05/05 07:29:01;;;;;;;9.23;5.47;;;;;;;;;;5073588;28;20205;-80
2022/05/05 07:31:29;;;;;;;7.82;5.57;;;;;;;;;;5073494;28;20228;-81
2022/05/05 07:33:57;;;;;;;5.20;4.25;;;;;;;;;;5073952;28;20204;-80
2022/05/05 07:36:25;;;;;;;6.95;5.30;;;;;;;;;;5074016;28;20208;-80
2022/05/05 07:38:52;;;;;;;4.00;3.70;;;;;;;;;;5073248;28;20201;-80
2022/05/05 07:41:19;;;;;;;4.72;4.28;;;;;;;;;;5073407;28;20236;-81
2022/05/05 07:43:47;;;;;;;4.70;4.30;;;;;;;;;;5073487;28;20581;-81
2022/05/05 07:46:17;;;;;;;4.57;3.65;;;;;;;;;;5074376;28;20296;-80
2022/05/05 07:48:46;;;;;;;6.68;4.88;;;;;;;;;;5073809;28;20215;-79
2022/05/05 07:51:13;;;;;;;3.90;3.50;;;;;;;;;;5073394;28;20255;-80
2022/05/05 07:53:41;;;;;;;5.78;4.50;;;;;;;;;;5072933;28;20588;-81
2022/05/05 07:56:08;;;;;;;4.80;4.30;;;;;;;;;;5073500;28;20711;-79
2022/05/05 07:58:35;;;;;;;4.53;4.00;;;;;;;;;;5073746;28;20205;-80
2022/05/05 08:01:03;;;;;;;4.60;4.10;;;;;;;;;;5072779;28;20239;-80
2022/05/05 08:03:30;;;;;;;5.07;4.55;;;;;;;;;;5072733;28;20719;-80
2022/05/05 08:05:59;;;;;;;4.93;4.45;;;;;;;;;;5073080;28;20205;-79
2022/05/05 08:08:27;;;;;;;5.60;4.63;;;;;;;;;;5073107;28;20205;-80
2022/05/05 08:10:54;;;;;;;4.20;3.80;;;;;;;;;;5072447;28;20217;-80
2022/05/05 08:13:21;;;;;;;5.50;3.40;;;;;;;;;;5072682;28;20200;-80
2022/05/05 08:15:49;;;;;;;5.07;4.07;;;;;;;;;;5072605;28;20213;-80
2022/05/05 08:18:16;;;;;;;4.82;4.32;;;;;;;;;;5072893;28;20213;-80
2022/05/05 08:20:43;;;;;;;4.80;4.40;;;;;;;;;;5073092;28;20274;-79
2022/05/05 08:23:12;;;;;;;8.35;4.97;;;;;;;;;;5072206;28;20209;-80
2022/05/05 08:28:32;;;;;;;4.45;4.05;;;;;;;;;;5073035;28;20726;-81
2022/05/05 08:31:00;;;;;;;5.20;4.35;;;;;;;;;;5072340;28;20228;-79
2022/05/05 08:33:28;;;;;;;3.70;3.13;;;;;;;;;;5072082;28;20209;-79
2022/05/05 08:35:55;;;;;;;7.22;4.30;;;;;;;;;;5072233;28;20669;-79
2022/05/05 08:38:24;;;;;;;4.95;4.40;;;;;;;;;;5072048;28;20209;-80
2022/05/05 08:40:52;;;;;;;6.10;4.22;;;;;;;;;;5072291;28;20229;-80
2022/05/05 08:43:20;;;;;;;5.53;4.45;;;;;;;;;;5071982;28;20216;-79
2022/05/05 08:45:47;;;;;;;6.32;4.20;;;;;;;;;;5072851;28;20209;-80
2022/05/05 08:48:16;;;;;;;5.90;4.50;;;;;;;;;;5072688;28;20207;-81
2022/05/05 08:50:45;;;;;;;5.18;3.90;;;;;;;;;;5072653;28;20735;-79
2022/05/05 08:53:15;;;;;;;4.90;4.45;;;;;;;;;;5072087;28;20204;-81
2022/05/05 08:55:45;;;;;;;4.38;3.95;;;;;;;;;;5072387;28;20233;-81
2022/05/05 08:58:12;;;;;;;5.05;4.65;;;;;;;;;;5072544;28;20311;-80
2022/05/05 09:00:41;;;;;;;4.45;3.70;;;;;;;;;;5072016;28;20233;-79
2022/05/05 09:03:10;;;;;;;4.60;3.85;;;;;;;;;;5072072;28;20225;-81
2022/05/05 09:05:48;;;;;;;4.15;3.20;;;;;;;;;;5072456;28;20265;-81
2022/05/05 09:08:28;;;;;;;3.13;2.75;;;;;;;;;;5072449;28;20232;-80
2022/05/05 09:11:01;;;;;;;4.93;3.67;;;;;;;;;;5072147;28;20728;-80
2022/05/05 09:13:30;;;;;;;5.53;3.78;;;;;;;;;;5064936;28;20287;-80
2022/05/05 09:15:58;;;;;;;3.72;3.20;;;;;;;;;;5065142;28;20594;-80
2022/05/05 09:18:28;;;;;;;4.47;3.95;;;;;;;;;;5071530;28;20653;-80
2022/05/05 09:20:56;;;;;;;4.65;3.80;;;;;;;;;;5071869;28;20259;-80
2022/05/05 09:23:32;;;;;;;4.10;3.70;;;;;;;;;;5071170;28;20228;-80
2022/05/05 09:26:03;;;;;;;3.33;3.05;;;;;;;;;;5071888;28;20201;-80
2022/05/05 09:28:32;;;;;;;4.43;4.13;;;;;;;;;;5071910;28;20213;-80
2022/05/05 09:31:06;;;;;;;3.75;3.35;;;;;;;;;;5072215;28;20229;-80
2022/05/05 09:33:44;;;;;;;4.20;3.60;;;;;;;;;;5071056;28;20201;-80
2022/05/05 09:36:13;;;;;;;3.55;3.17;;;;;;;;;;5072182;28;20208;-80
2022/05/05 09:38:51;;;;;;;4.85;4.38;;;;;;;;;;5071894;28;20810;-80
2022/05/05 09:41:20;;;;;;;5.60;3.90;;;;;;;;;;5071101;28;20270;-80
2022/05/05 09:43:47;;;;;;;3.90;3.53;;;;;;;;;;5071366;28;20228;-80
2022/05/05 09:46:34;;;;;;;5.53;3.75;;;;;;;;;;5071925;28;20208;-79
2022/05/05 09:49:13;;;;;;;4.40;3.92;;;;;;;;;;5075774;28;20582;-80
2022/05/05 09:51:45;;;;;;;4.95;3.20;;;;;;;;;;5074852;28;20228;-79
2022/05/05 09:59:50;;;;;;;3.97;2.95;;;;;;;;;;5075762;28;20215;-80
2022/05/05 10:05:11;;;;;;;2.75;2.55;;;;;;;;;;5044563;28;20212;-80
2022/05/05 10:07:43;;;;;;;2.25;2.05;;;;;;;;;;5070143;28;20216;-80
2022/05/05 10:10:11;;;;;;;2.28;2.03;;;;;;;;;;5075772;28;20673;-79
2022/05/05 10:12:41;;;;;;;2.53;2.05;;;;;;;;;;5074335;28;20632;-81
2022/05/05 10:15:10;;;;;;;1.70;1.60;;;;;;;;;;5075234;28;20205;-80
2022/05/05 10:17:38;;;;;;;2.10;2.00;;;;;;;;;;5074709;28;20208;-79
2022/05/05 10:20:09;;;;;;;1.77;1.65;;;;;;;;;;5075404;28;20200;-79
2022/05/05 10:22:41;;;;;;;2.97;2.35;;;;;;;;;;5074826;28;20780;-80
2022/05/05 10:25:14;;;;;;;3.03;2.60;;;;;;;;;;5075187;28;20239;-80
2022/05/05 10:27:46;;;;;;;2.22;2.03;;;;;;;;;;5075045;28;20213;-81
2022/05/05 10:30:17;;;;;;;3.90;2.10;;;;;;;;;;5074946;28;20307;-80
2022/05/05 10:32:44;;;;;;;2.33;2.13;;;;;;;;;;5074291;28;20233;-82
2022/05/05 10:35:23;;;;;;;3.47;2.33;;;;;;;;;;5074795;28;20201;-79
2022/05/05 10:37:51;;;;;;;1.80;1.70;;;;;;;;;;5074262;28;20246;-80
2022/05/05 10:40:18;;;;;;;1.45;1.35;;;;;;;;;;5075048;28;20228;-80
2022/05/05 10:42:51;;;;;;;1.40;1.30;;;;;;;;;;5074410;28;20225;-80
2022/05/05 10:45:18;;;;;;;1.50;1.40;;;;;;;;;;5075541;28;20274;-79
2022/05/05 10:48:30;;;;;;;1.40;1.30;;;;;;;;;;5074679;28;20731;-79
2022/05/05 10:51:08;;;;;;;1.58;1.48;;;;;;;;;;5074932;28;20220;-80
2022/05/05 10:53:41;;;;;;;1.63;1.52;;;;;;;;;;5068523;28;20651;-80
2022/05/05 10:56:31;;;;;;;3.67;1.83;;;;;;;;;;5075247;28;20579;-80
2022/05/05 10:59:09;;;;;;;1.90;1.80;;;;;;;;;;5075103;28;20311;-80
2022/05/05 11:02:04;;;;;;;1.80;1.70;;;;;;;;;;5074738;28;20224;-80
2022/05/05 11:04:33;;;;;;;1.23;1.23;;;;;;;;;;5074376;28;20270;-80
2022/05/05 11:07:36;;;;;;;1.65;1.52;;;;;;;;;;5074463;28;20688;-80
2022/05/05 11:10:08;;;;;;;1.20;1.13;;;;;;;;;;5074549;28;20209;-80
2022/05/05 11:12:37;;;;;;;2.67;1.83;;;;;;;;;;5074588;28;20216;-81
2022/05/05 11:23:33;;;;;;;1.20;1.20;;;;;;;;;;5073596;28;20295;-81
2022/05/05 11:26:01;;;;;;;2.83;2.15;;;;;;;;;;5074229;28;20215;-80
2022/05/05 11:28:31;;;;;;;2.30;2.20;;;;;;;;;;5074018;28;20244;-80
2022/05/05 11:30:59;;;;;;;1.60;1.50;;;;;;;;;;5073946;28;20221;-82
2022/05/05 11:33:27;;;;;;;2.53;1.38;;;;;;;;;;5073585;28;20201;-80
2022/05/05 11:35:57;;;;;;;3.15;2.50;;;;;;;;;;5073890;28;20205;-81
2022/05/05 11:38:26;;;;;;;1.83;1.73;;;;;;;;;;5073567;28;20208;-82
2022/05/05 11:41:05;;;;;;;2.40;2.20;;;;;;;;;;5074352;28;20256;-80
2022/05/05 11:46:21;;;;;;;1.58;1.35;;;;;;;;;;5073368;28;20211;-80
2022/05/05 11:48:56;;;;;;;1.50;1.40;;;;;;;;;;5073856;28;20205;-80
2022/05/05 11:51:26;;;;;;;1.33;1.13;;;;;;;;;;5073487;28;20286;-80
2022/05/05 11:54:06;;;;;;;0.82;0.82;;;;;;;;;;5072644;28;20201;-81
2022/05/05 11:56:34;;;;;;;2.08;1.40;;;;;;;;;;5073541;28;20213;-80
2022/05/05 12:02:06;;;;;;;1.00;1.00;;;;;;;;;;5072703;28;20240;-79
2022/05/05 12:04:35;;;;;;;1.13;1.13;;;;;;;;;;5073680;28;20228;-81
2022/05/05 12:07:04;;;;;;;1.30;1.20;;;;;;;;;;5073308;28;20240;-81
2022/05/05 12:09:31;;;;;;;1.80;1.40;;;;;;;;;;5073402;28;20217;-82
2022/05/05 12:12:08;;;;;;;1.65;1.38;;;;;;;;;;5072241;28;20770;-81
2022/05/05 12:14:42;;;;;;;1.60;1.50;;;;;;;;;;5073993;28;20281;-81
2022/05/05 12:17:16;;;;;;;1.42;1.33;;;;;;;;;;5074501;28;20261;-81
2022/05/05 12:19:50;;;;;;;1.55;1.30;;;;;;;;;;5067980;28;20204;-81
2022/05/05 12:22:22;;;;;;;3.25;1.60;;;;;;;;;;5068035;28;20262;-80
2022/05/05 12:24:49;;;;;;;2.22;1.23;;;;;;;;;;5073350;28;20233;-81
2022/05/05 12:27:17;;;;;;;1.80;1.60;;;;;;;;;;5072990;28;20197;-80
2022/05/05 12:29:46;;;;;;;2.08;1.90;;;;;;;;;;5072787;28;20208;-80
2022/05/05 12:32:17;;;;;;;2.08;1.98;;;;;;;;;;5072062;28;20205;-81
2022/05/05 12:34:45;;;;;;;2.08;1.98;;;;;;;;;;5073763;28;20293;-81
2022/05/05 12:37:17;;;;;;;2.13;1.55;;;;;;;;;;5072292;28;20197;-81
2022/05/05 12:39:53;;;;;;;1.80;1.70;;;;;;;;;;5073720;28;20209;-81
2022/05/05 12:42:21;;;;;;;1.88;1.70;;;;;;;;;;5071959;28;20216;-79
2022/05/05 12:44:50;;;;;;;2.83;1.80;;;;;;;;;;5073084;28;20278;-79
2022/05/05 12:47:25;;;;;;;1.63;1.50;;;;;;;;;;5071250;28;20303;-80
2022/05/05 12:49:52;;;;;;;1.60;1.48;;;;;;;;;;5073082;28;20208;-80
2022/05/05 13:00:55;;;;;;;1.52;1.42;;;;;;;;;;5074732;28;20281;-80
2022/05/05 13:03:23;;;;;;;1.80;1.55;;;;;;;;;;5074508;28;20233;-81
2022/05/05 13:05:51;;;;;;;1.58;1.48;;;;;;;;;;5075996;28;20652;-81
2022/05/05 13:08:18;;;;;;;4.18;1.92;;;;;;;;;;5074415;28;20201;-79
2022/05/05 13:10:45;;;;;;;2.67;2.17;;;;;;;;;;5072033;28;20228;-80
2022/05/05 13:13:14;;;;;;;1.48;1.20;;;;;;;;;;5071339;28;20702;-79
2022/05/05 13:15:42;;;;;;;1.83;1.13;;;;;;;;;;5072133;28;20292;-80
2022/05/05 13:18:10;;;;;;;1.60;1.13;;;;;;;;;;5071953;28;20665;-79
2022/05/05 13:20:38;;;;;;;1.50;1.10;;;;;;;;;;5073763;28;20598;-80
2022/05/05 13:23:06;;;;;;;1.75;1.65;;;;;;;;;;5069728;28;20197;-80
2022/05/05 13:25:33;;;;;;;1.35;1.30;;;;;;;;;;5076017;28;20225;-80
2022/05/05 13:28:02;;;;;;;3.30;1.63;;;;;;;;;;5076403;28;20618;-80
2022/05/05 13:30:29;;;;;;;1.45;1.35;;;;;;;;;;5076650;28;20704;-79
2022/05/05 13:32:56;;;;;;;1.92;1.83;;;;;;;;;;5076144;28;20383;-80
2022/05/05 13:35:24;;;;;;;1.75;1.65;;;;;;;;;;5076785;28;20734;-80
2022/05/05 13:37:53;;;;;;;1.70;1.60;;;;;;;;;;5076823;28;20205;-80
2022/05/05 13:40:20;;;;;;;2.17;2.08;;;;;;;;;;5076666;28;20251;-80
2022/05/05 13:42:47;;;;;;;2.45;1.85;;;;;;;;;;5071694;28;20199;-81
2022/05/05 13:45:15;;;;;;;2.97;2.78;;;;;;;;;;5076104;28;20613;-80
2022/05/05 13:47:42;;;;;;;1.42;1.33;;;;;;;;;;5075974;28;20208;-80
2022/05/05 13:50:11;;;;;;;1.63;1.52;;;;;;;;;;5074996;28;20312;-80
2022/05/05 13:52:40;;;;;;;2.35;1.33;;;;;;;;;;5070143;28;20272;-80
2022/05/05 13:55:09;;;;;;;1.63;1.42;;;;;;;;;;5078511;28;20296;-81
2022/05/05 13:57:37;;;;;;;2.00;1.90;;;;;;;;;;5077621;28;20712;-81
2022/05/05 14:00:06;;;;;;;2.13;2.00;;;;;;;;;;5077812;28;20651;-81
2022/05/05 14:02:33;;;;;;;2.22;1.33;;;;;;;;;;5078079;28;20209;-81
2022/05/05 14:05:00;;;;;;;1.40;1.30;;;;;;;;;;5077810;28;20251;-81
2022/05/05 14:12:59;;;;;;;1.38;1.27;;;;;;;;;;5077655;28;20601;-81
2022/05/05 14:15:27;;;;;;;1.80;1.70;;;;;;;;;;5071110;28;20213;-80
2022/05/05 14:17:55;;;;;;;1.85;1.65;;;;;;;;;;5070158;28;20236;-81
2022/05/05 14:20:22;;;;;;;2.17;2.03;;;;;;;;;;5071569;28;20233;-81
2022/05/05 14:22:49;;;;;;;1.92;1.83;;;;;;;;;;5070782;28;20288;-80
2022/05/05 14:25:19;;;;;;;1.63;1.52;;;;;;;;;;5076920;28;20229;-80
2022/05/05 14:27:47;;;;;;;3.83;2.40;;;;;;;;;;5071619;28;20205;-80
2022/05/05 14:30:14;;;;;;;4.53;1.83;;;;;;;;;;5077767;28;20224;-81
2022/05/05 14:32:42;;;;;;;1.50;1.40;;;;;;;;;;5076497;28;20205;-80
2022/05/05 14:35:10;;;;;;;1.50;1.40;;;;;;;;;;5076388;28;20201;-80
2022/05/05 14:37:37;;;;;;;1.83;1.73;;;;;;;;;;5077935;28;20231;-80
2022/05/05 14:40:07;;;;;;;2.20;2.00;;;;;;;;;;5077585;28;20208;-81
2022/05/05 14:42:36;;;;;;;2.03;1.60;;;;;;;;;;5075726;28;20201;-81
2022/05/05 14:45:03;;;;;;;1.73;1.63;;;;;;;;;;5077542;28;20278;-79
2022/05/05 14:47:31;;;;;;;1.65;1.55;;;;;;;;;;5077116;28;20673;-80
2022/05/05 14:49:59;;;;;;;1.30;1.30;;;;;;;;;;5076851;28;20262;-80
2022/05/05 14:52:26;;;;;;;1.40;1.30;;;;;;;;;;5075220;28;20209;-78
2022/05/05 14:54:53;;;;;;;2.28;1.80;;;;;;;;;;5076964;28;20209;-80
2022/05/05 14:57:22;;;;;;;1.20;1.20;;;;;;;;;;5077326;28;20652;-79
2022/05/05 14:59:50;;;;;;;1.92;1.75;;;;;;;;;;5077096;28;20209;-78
2022/05/05 15:02:18;;;;;;;1.67;1.40;;;;;;;;;;5076425;28;20209;-79
2022/05/05 15:04:45;;;;;;;3.55;1.73;;;;;;;;;;5077561;28;20209;-79
2022/05/05 15:07:13;;;;;;;1.88;1.77;;;;;;;;;;5077367;28;20300;-80
2022/05/05 15:09:40;;;;;;;1.50;1.40;;;;;;;;;;5076772;28;20255;-80
2022/05/05 15:12:09;;;;;;;1.55;1.38;;;;;;;;;;5075644;28;20267;-79
2022/05/05 15:14:37;;;;;;;2.58;1.77;;;;;;;;;;5075906;28;20729;-80
2022/05/05 15:17:06;;;;;;;2.30;1.58;;;;;;;;;;5075998;28;20205;-80
2022/05/05 15:19:34;;;;;;;1.70;1.60;;;;;;;;;;5075880;28;20299;-81
2022/05/05 15:22:02;;;;;;;1.52;1.42;;;;;;;;;;5075488;28;20239;-79
2022/05/05 15:24:29;;;;;;;1.98;1.80;;;;;;;;;;5076967;28;20240;-80
2022/05/05 15:26:56;;;;;;;1.80;1.70;;;;;;;;;;5076133;28;20247;-81
2022/05/05 15:29:24;;;;;;;2.85;2.00;;;;;;;;;;5076441;28;20262;-80
2022/05/05 15:31:52;;;;;;;2.78;1.90;;;;;;;;;;5074670;28;20229;-80
2022/05/05 15:34:20;;;;;;;1.70;1.60;;;;;;;;;;5077018;28;20205;-80
2022/05/05 15:36:48;;;;;;;1.90;1.70;;;;;;;;;;5078323;28;20209;-79
2022/05/05 15:39:15;;;;;;;1.55;1.45;;;;;;;;;;5075986;28;20205;-79
2022/05/05 15:41:43;;;;;;;2.00;1.90;;;;;;;;;;5071619;28;20221;-79
2022/05/05 15:44:10;;;;;;;1.83;1.63;;;;;;;;;;5077961;28;20669;-79
2022/05/05 15:46:38;;;;;;;1.48;1.23;;;;;;;;;;5076335;28;20220;-79
2022/05/05 15:49:05;;;;;;;1.98;1.60;;;;;;;;;;5077221;28;20212;-79
2022/05/05 15:51:34;;;;;;;1.30;1.20;;;;;;;;;;5072422;28;20232;-80
2022/05/05 15:54:03;;;;;;;1.40;1.30;;;;;;;;;;5074614;28;20243;-80